Time;durP1;ratioP1;P1;durP2;ratioP2;P2;SDS_P1;SDS_P2;PMS_P1;PMS_P2;Temp;Humidity;BMP_temperature;BMP_pressure;BME280_temperature;BME280_humidity;BME280_pressure;Samples;Min_cycle;Max_cycle;Signal;HPM_P1;HPM_P2
2023/12/10 00:02:16;;;;;;;0.30;0.30;;;;;;;7.89;100.00;99725.75;5094226;28;20052;-51
2023/12/10 00:04:42;;;;;;;0.30;0.30;;;;;;;7.89;100.00;99733.44;5094019;28;20027;-50
2023/12/10 00:07:08;;;;;;;0.30;0.30;;;;;;;7.91;100.00;99728.31;5094531;28;20056;-51
2023/12/10 00:09:33;;;;;;;0.20;0.20;;;;;;;7.95;100.00;99719.00;5094118;28;20059;-51
2023/12/10 00:11:58;;;;;;;0.30;0.30;;;;;;;8.00;100.00;99719.97;5093561;28;20482;-50
2023/12/10 00:14:24;;;;;;;0.30;0.30;;;;;;;8.00;100.00;99718.25;5093437;28;20036;-48
2023/12/10 00:16:49;;;;;;;0.30;0.30;;;;;;;8.02;100.00;99720.88;5093429;28;20111;-49
2023/12/10 00:19:15;;;;;;;0.30;0.30;;;;;;;8.06;100.00;99732.94;5094431;28;20031;-49
2023/12/10 00:21:40;;;;;;;0.28;0.28;;;;;;;8.12;100.00;99733.09;5094206;28;20070;-49
2023/12/10 00:24:06;;;;;;;0.30;0.30;;;;;;;8.14;100.00;99733.97;5093251;28;20032;-46
2023/12/10 00:26:31;;;;;;;0.30;0.30;;;;;;;8.17;100.00;99739.19;5093869;28;20026;-49
2023/12/10 00:28:56;;;;;;;0.30;0.30;;;;;;;8.17;100.00;99746.88;5094009;28;20083;-49
2023/12/10 00:31:22;;;;;;;0.30;0.30;;;;;;;8.17;100.00;99757.16;5093059;28;20024;-51
2023/12/10 00:33:47;;;;;;;0.30;0.30;;;;;;;8.21;100.00;99752.94;5093940;28;20032;-50
2023/12/10 00:36:15;;;;;;;0.30;0.30;;;;;;;8.22;100.00;99752.97;5093859;28;20020;-48
2023/12/10 00:38:40;;;;;;;0.30;0.30;;;;;;;8.18;100.00;99761.44;5093305;28;20089;-47
2023/12/10 00:41:08;;;;;;;0.22;0.22;;;;;;;8.17;100.00;99759.72;5093870;28;20467;-50
2023/12/10 00:43:33;;;;;;;0.30;0.30;;;;;;;8.15;100.00;99761.38;5093522;28;20114;-48
2023/12/10 00:45:58;;;;;;;0.30;0.30;;;;;;;8.11;100.00;99756.13;5092890;28;20115;-47
2023/12/10 00:48:24;;;;;;;0.30;0.30;;;;;;;8.01;100.00;99762.78;5093187;28;20492;-51
2023/12/10 00:50:49;;;;;;;0.30;0.30;;;;;;;7.97;100.00;99763.53;5093881;28;20032;-46
2023/12/10 00:53:14;;;;;;;0.30;0.30;;;;;;;7.95;100.00;99765.19;5092496;28;20072;-49
2023/12/10 00:55:40;;;;;;;0.30;0.30;;;;;;;7.88;100.00;99771.88;5093801;28;20116;-46
2023/12/10 00:58:05;;;;;;;0.20;0.20;;;;;;;7.82;100.00;99775.16;5093575;28;20107;-49
2023/12/10 01:00:31;;;;;;;0.30;0.30;;;;;;;7.77;100.00;99787.00;5092396;28;20024;-47
2023/12/10 01:02:56;;;;;;;0.25;0.25;;;;;;;7.72;100.00;99786.03;5093737;28;20024;-51
2023/12/10 01:05:21;;;;;;;0.20;0.20;;;;;;;7.66;100.00;99781.63;5092776;28;20107;-51
2023/12/10 01:07:47;;;;;;;0.20;0.20;;;;;;;7.62;100.00;99800.34;5092859;28;20031;-51
2023/12/10 01:10:12;;;;;;;0.30;0.30;;;;;;;7.62;100.00;99784.06;5092983;28;20027;-49
2023/12/10 01:12:38;;;;;;;0.30;0.30;;;;;;;7.59;100.00;99802.81;5093020;28;20016;-49
2023/12/10 01:15:10;;;;;;;0.30;0.30;;;;;;;7.55;100.00;99785.63;5092630;28;20428;-50
2023/12/10 01:17:36;;;;;;;0.30;0.30;;;;;;;7.48;100.00;99800.00;5093367;28;20081;-50
2023/12/10 01:20:03;;;;;;;0.30;0.30;;;;;;;7.51;100.00;99792.38;5092359;28;20032;-50
2023/12/10 01:22:29;;;;;;;0.30;0.30;;;;;;;7.53;100.00;99783.03;5093005;28;20027;-51
2023/12/10 01:24:54;;;;;;;0.30;0.30;;;;;;;7.52;100.00;99793.25;5092631;28;20414;-48
2023/12/10 01:27:19;;;;;;;0.30;0.30;;;;;;;7.48;100.00;99794.88;5092083;28;20150;-50
2023/12/10 01:29:45;;;;;;;0.28;0.28;;;;;;;7.50;100.00;99793.22;5109393;28;20099;-50
2023/12/10 01:32:10;;;;;;;0.30;0.30;;;;;;;7.53;100.00;99800.97;5113061;28;20080;-51
2023/12/10 01:34:37;;;;;;;0.20;0.20;;;;;;;7.51;100.00;99805.19;5112507;28;20020;-49
2023/12/10 01:37:02;;;;;;;0.30;0.30;;;;;;;7.55;100.00;99812.16;5113343;28;20148;-48
2023/12/10 01:39:27;;;;;;;0.30;0.30;;;;;;;7.54;100.00;99825.78;5112926;28;20049;-51
2023/12/10 01:41:53;;;;;;;0.30;0.30;;;;;;;7.48;100.00;99835.03;5112525;28;20030;-48
2023/12/10 01:44:18;;;;;;;0.30;0.30;;;;;;;7.43;100.00;99837.47;5112810;28;20051;-51
2023/12/10 01:46:45;;;;;;;0.30;0.30;;;;;;;7.41;100.00;99829.75;5112956;28;20092;-50
2023/12/10 01:49:18;;;;;;;0.30;0.30;;;;;;;7.36;100.00;99822.75;5112230;28;20088;-49
2023/12/10 01:51:44;;;;;;;0.22;0.22;;;;;;;7.35;100.00;99833.84;5113497;28;20039;-50
2023/12/10 01:54:31;;;;;;;0.30;0.30;;;;;;;7.37;100.00;99834.72;5113009;28;20387;-48
2023/12/10 01:56:57;;;;;;;0.30;0.30;;;;;;;7.31;100.00;99842.25;5112308;28;20063;-50
2023/12/10 01:59:23;;;;;;;0.30;0.30;;;;;;;7.32;100.00;99831.19;5113008;28;20065;-50
2023/12/10 02:01:48;;;;;;;0.30;0.30;;;;;;;7.22;100.00;99833.50;5113045;28;20024;-50
2023/12/10 02:04:16;;;;;;;0.30;0.30;;;;;;;7.15;100.00;99835.88;5111961;28;20024;-50
2023/12/10 02:06:42;;;;;;;0.30;0.30;;;;;;;7.13;100.00;99838.38;5112986;28;20433;-50
2023/12/10 02:09:12;;;;;;;0.30;0.30;;;;;;;7.14;100.00;99824.75;5112706;28;20019;-49
2023/12/10 02:11:39;;;;;;;0.30;0.30;;;;;;;7.09;100.00;99841.69;5113086;28;20123;-49
2023/12/10 02:14:04;;;;;;;0.30;0.30;;;;;;;7.13;100.00;99833.25;5113230;28;20083;-50
2023/12/10 02:16:30;;;;;;;0.40;0.40;;;;;;;7.09;100.00;99828.88;5111928;28;20540;-50
2023/12/10 02:18:55;;;;;;;0.30;0.30;;;;;;;7.07;100.00;99843.34;5113042;28;20028;-50
2023/12/10 02:21:20;;;;;;;0.30;0.30;;;;;;;7.03;100.00;99841.53;5112711;28;20062;-50
2023/12/10 02:24:18;;;;;;;0.30;0.30;;;;;;;6.99;100.00;99834.59;5112161;28;20052;-48
2023/12/10 02:26:44;;;;;;;0.30;0.30;;;;;;;6.99;100.00;99855.09;5056988;28;20126;-48
2023/12/10 02:29:09;;;;;;;0.30;0.30;;;;;;;6.97;100.00;99851.59;5112663;28;20103;-49
2023/12/10 02:31:34;;;;;;;0.40;0.40;;;;;;;6.96;100.00;99866.09;5112055;28;20036;-49
2023/12/10 02:34:00;;;;;;;0.40;0.40;;;;;;;6.95;100.00;99856.69;5112769;28;20063;-50
2023/12/10 02:36:25;;;;;;;0.40;0.40;;;;;;;6.97;100.00;99857.59;5113870;28;20027;-46
2023/12/10 02:38:51;;;;;;;0.30;0.30;;;;;;;6.98;100.00;99855.91;5116040;28;20023;-48
2023/12/10 02:41:16;;;;;;;0.30;0.30;;;;;;;6.99;100.00;99845.69;5116465;28;20031;-49
2023/12/10 02:43:41;;;;;;;0.30;0.30;;;;;;;7.03;100.00;99855.19;5116210;28;20106;-51
2023/12/10 02:46:07;;;;;;;0.30;0.30;;;;;;;7.03;100.00;99859.47;5115822;28;20019;-49
2023/12/10 02:48:32;;;;;;;0.30;0.30;;;;;;;7.08;100.00;99860.47;5116087;28;20031;-49
2023/12/10 02:50:58;;;;;;;0.40;0.40;;;;;;;7.08;100.00;99863.00;5115995;28;20035;-50
2023/12/10 02:53:23;;;;;;;0.30;0.30;;;;;;;7.14;100.00;99870.88;5115713;28;20028;-51
2023/12/10 02:55:48;;;;;;;0.30;0.30;;;;;;;7.20;100.00;99868.47;5116495;28;20023;-49
2023/12/10 02:58:15;;;;;;;0.30;0.30;;;;;;;7.21;100.00;99883.03;5115826;28;20364;-49
2023/12/10 03:00:41;;;;;;;0.30;0.30;;;;;;;7.28;100.00;99883.19;5115862;28;20047;-49
2023/12/10 03:03:06;;;;;;;0.40;0.40;;;;;;;7.23;100.00;99901.88;5115992;28;20051;-49
2023/12/10 03:05:32;;;;;;;0.30;0.30;;;;;;;7.25;100.00;99882.28;5114947;28;20069;-49
2023/12/10 03:07:57;;;;;;;0.32;0.32;;;;;;;7.25;100.00;99874.59;5115929;28;20055;-48
2023/12/10 03:10:23;;;;;;;0.30;0.30;;;;;;;7.25;100.00;99887.41;5115592;28;20038;-49
2023/12/10 03:12:48;;;;;;;0.30;0.30;;;;;;;7.23;100.00;99875.38;5115261;28;20024;-50
2023/12/10 03:15:13;;;;;;;0.30;0.30;;;;;;;7.24;100.00;99880.56;5115609;28;20505;-50
2023/12/10 03:17:39;;;;;;;0.30;0.30;;;;;;;7.32;100.00;99875.63;5115911;28;20479;-50
2023/12/10 03:20:05;;;;;;;0.30;0.30;;;;;;;7.34;100.00;99898.75;5114991;28;20028;-47
2023/12/10 03:22:31;;;;;;;0.40;0.40;;;;;;;7.36;100.00;99891.94;5114990;28;20132;-50
2023/12/10 03:24:56;;;;;;;0.30;0.30;;;;;;;7.36;100.00;99908.22;5115601;28;20114;-50
2023/12/10 03:27:22;;;;;;;0.30;0.30;;;;;;;7.37;100.00;99906.50;5114654;28;20030;-48
2023/12/10 03:29:47;;;;;;;0.30;0.30;;;;;;;7.38;100.00;99905.69;5115660;28;20027;-55
2023/12/10 03:32:13;;;;;;;0.30;0.30;;;;;;;7.50;100.00;99910.28;5115432;28;20030;-49
2023/12/10 03:34:38;;;;;;;0.30;0.30;;;;;;;7.51;100.00;99902.63;5114706;28;20027;-50
2023/12/10 03:37:04;;;;;;;0.30;0.30;;;;;;;7.53;100.00;99921.47;5115505;28;20532;-47
2023/12/10 03:39:29;;;;;;;0.30;0.30;;;;;;;7.52;100.00;99914.63;5115300;28;20024;-51
2023/12/10 03:41:54;;;;;;;0.30;0.30;;;;;;;7.51;100.00;99919.72;5114789;28;20436;-50
2023/12/10 03:44:20;;;;;;;0.30;0.30;;;;;;;7.52;100.00;99930.00;5114996;28;20098;-48
2023/12/10 03:46:45;;;;;;;0.30;0.30;;;;;;;7.56;100.00;99938.66;5114705;28;20078;-50
2023/12/10 03:49:10;;;;;;;0.30;0.30;;;;;;;7.57;100.00;99931.00;5114401;28;20051;-50
2023/12/10 03:51:36;;;;;;;0.30;0.30;;;;;;;7.57;100.00;99931.00;5115395;28;20364;-50
2023/12/10 03:54:01;;;;;;;0.30;0.30;;;;;;;7.61;100.00;99933.66;5115079;28;20412;-50
2023/12/10 03:56:26;;;;;;;0.30;0.30;;;;;;;7.58;100.00;99935.31;5114243;28;20094;-50
2023/12/10 03:58:52;;;;;;;0.30;0.30;;;;;;;7.57;100.00;99930.13;5115175;28;20076;-48
2023/12/10 04:01:17;;;;;;;0.30;0.30;;;;;;;7.58;100.00;99935.31;5114514;28;20034;-49
2023/12/10 04:03:43;;;;;;;0.30;0.30;;;;;;;7.62;100.00;99943.06;5114340;28;20465;-50
2023/12/10 04:06:08;;;;;;;0.30;0.30;;;;;;;7.65;100.00;99940.59;5115066;28;20039;-48
2023/12/10 04:08:33;;;;;;;0.40;0.40;;;;;;;7.70;100.00;99921.06;5114572;28;20363;-50
2023/12/10 04:10:59;;;;;;;0.30;0.30;;;;;;;7.74;100.00;99944.25;5114440;28;20024;-49
2023/12/10 04:13:24;;;;;;;0.30;0.30;;;;;;;7.78;100.00;99950.34;5114613;28;20015;-46
2023/12/10 04:15:49;;;;;;;0.30;0.30;;;;;;;7.79;100.00;99959.78;5114055;28;20475;-51
2023/12/10 04:18:15;;;;;;;0.30;0.30;;;;;;;7.82;100.00;99964.97;5114282;28;20421;-49
2023/12/10 04:20:43;;;;;;;0.40;0.40;;;;;;;7.87;100.00;99968.53;5114618;28;20364;-49
2023/12/10 04:23:09;;;;;;;0.40;0.40;;;;;;;7.87;100.00;99976.22;5114093;28;20039;-46
2023/12/10 04:25:34;;;;;;;0.30;0.30;;;;;;;7.91;100.00;99985.78;5114239;28;20028;-49
2023/12/10 04:28:00;;;;;;;0.30;0.30;;;;;;;7.94;100.00;99973.84;5114602;28;20027;-49
2023/12/10 04:30:26;;;;;;;0.40;0.40;;;;;;;7.92;100.00;99981.50;5113313;28;20023;-46
2023/12/10 04:32:55;;;;;;;0.30;0.30;;;;;;;7.96;100.00;99993.56;5114435;28;20019;-48
2023/12/10 04:35:20;;;;;;;0.30;0.30;;;;;;;7.99;100.00;100013.31;5114220;28;20016;-49
2023/12/10 04:37:46;;;;;;;0.30;0.30;;;;;;;8.00;100.00;99999.66;5113511;28;20459;-49
2023/12/10 04:40:11;;;;;;;0.22;0.22;;;;;;;8.03;100.00;99992.03;5114246;28;20039;-49
2023/12/10 04:42:38;;;;;;;0.30;0.30;;;;;;;8.06;100.00;100012.66;5114320;28;20049;-50
2023/12/10 04:45:06;;;;;;;0.30;0.30;;;;;;;8.07;100.00;100004.13;5113448;28;20024;-49
2023/12/10 04:47:31;;;;;;;;;;;;;;;8.14;100.00;100023.97;5114042;28;20042;-51
2023/12/10 04:49:57;;;;;;;0.30;0.30;;;;;;;8.11;100.00;100012.75;5114033;28;20007;-50
2023/12/10 04:52:22;;;;;;;0.30;0.30;;;;;;;8.08;100.00;100013.56;5113411;28;20028;-49
2023/12/10 04:54:47;;;;;;;0.30;0.30;;;;;;;8.15;100.00;100027.44;5114106;28;20390;-50
2023/12/10 04:57:14;;;;;;;0.30;0.30;;;;;;;8.12;100.00;100027.34;5113600;28;20067;-50
2023/12/10 04:59:39;;;;;;;0.30;0.30;;;;;;;8.09;100.00;100025.56;5112664;28;20024;-50
2023/12/10 05:02:04;;;;;;;0.38;0.38;;;;;;;8.16;100.00;100055.72;5113776;28;20050;-49
2023/12/10 05:04:30;;;;;;;0.40;0.40;;;;;;;8.16;100.00;100040.31;5113433;28;20049;-50
2023/12/10 05:06:55;;;;;;;0.30;0.30;;;;;;;8.14;100.00;100036.81;5113385;28;20084;-50
2023/12/10 05:09:20;;;;;;;0.20;0.20;;;;;;;8.12;100.00;100060.72;5113497;28;20020;-49
2023/12/10 05:11:46;;;;;;;0.30;0.30;;;;;;;8.10;100.00;100055.53;5113585;28;20023;-46
2023/12/10 05:14:11;;;;;;;0.30;0.30;;;;;;;8.09;100.00;100066.63;5112968;28;20030;-47
2023/12/10 05:16:36;;;;;;;0.30;0.30;;;;;;;8.14;100.00;100071.91;5113504;28;20111;-47
2023/12/10 05:19:02;;;;;;;0.20;0.20;;;;;;;8.13;100.00;100077.84;5113510;28;20111;-50
2023/12/10 05:21:27;;;;;;;0.30;0.30;;;;;;;8.12;100.00;100078.66;5112854;28;20047;-47
2023/12/10 05:23:53;;;;;;;0.30;0.30;;;;;;;8.15;100.00;100095.03;5113466;28;20475;-49
2023/12/10 05:26:18;;;;;;;0.30;0.30;;;;;;;8.15;100.00;100069.38;5112254;28;20027;-47
2023/12/10 05:28:43;;;;;;;0.30;0.30;;;;;;;8.17;100.00;100087.38;5113345;28;20038;-49
2023/12/10 05:31:09;;;;;;;0.30;0.30;;;;;;;8.18;100.00;100083.97;5113258;28;20027;-48
2023/12/10 05:33:35;;;;;;;0.30;0.30;;;;;;;8.18;100.00;100092.53;5112658;28;20110;-49
2023/12/10 05:36:02;;;;;;;0.30;0.30;;;;;;;8.20;100.00;100090.03;5113474;28;20019;-51
2023/12/10 05:38:27;;;;;;;0.20;0.20;;;;;;;8.22;100.00;100107.22;5113166;28;20094;-50
2023/12/10 05:40:52;;;;;;;0.30;0.30;;;;;;;8.21;100.00;100108.03;5112558;28;20437;-49
2023/12/10 05:43:18;;;;;;;0.30;0.30;;;;;;;8.20;100.00;100096.03;5113103;28;20454;-49
2023/12/10 05:45:43;;;;;;;0.30;0.30;;;;;;;8.19;100.00;100098.56;5113041;28;20046;-51
2023/12/10 05:48:08;;;;;;;0.40;0.40;;;;;;;8.18;100.00;100114.78;5112173;28;20039;-49
2023/12/10 05:50:33;;;;;;;0.30;0.30;;;;;;;8.20;100.00;100108.84;5112673;28;20024;-48
2023/12/10 05:52:59;;;;;;;0.30;0.30;;;;;;;8.18;100.00;100118.19;5112840;28;20089;-50
2023/12/10 05:55:24;;;;;;;0.20;0.20;;;;;;;8.17;100.00;100126.75;5112162;28;20080;-48
2023/12/10 05:57:50;;;;;;;0.30;0.30;;;;;;;8.20;100.00;100137.09;5113036;28;20051;-50
2023/12/10 06:00:15;;;;;;;0.25;0.25;;;;;;;8.20;100.00;100131.97;5112619;28;20065;-50
2023/12/10 06:02:40;;;;;;;0.30;0.30;;;;;;;8.24;100.00;100153.47;5112749;28;20370;-47
2023/12/10 06:05:06;;;;;;;0.28;0.28;;;;;;;8.17;100.00;100151.53;5113125;28;20364;-49
2023/12/10 06:07:31;;;;;;;0.30;0.30;;;;;;;8.19;100.00;100168.72;5112595;28;20031;-50
2023/12/10 06:09:57;;;;;;;0.20;0.20;;;;;;;8.17;100.00;100160.13;5112331;28;20076;-49
2023/12/10 06:12:22;;;;;;;0.20;0.20;;;;;;;8.15;100.00;100164.34;5115773;28;20055;-46
2023/12/10 06:14:47;;;;;;;0.22;0.22;;;;;;;8.12;100.00;100171.97;5116758;28;20377;-48
2023/12/10 06:17:13;;;;;;;0.20;0.20;;;;;;;8.16;100.00;100184.03;5116383;28;20023;-50
2023/12/10 06:19:38;;;;;;;0.30;0.30;;;;;;;8.16;100.00;100191.75;5116947;28;20157;-51
2023/12/10 06:22:03;;;;;;;0.20;0.20;;;;;;;8.14;100.00;100182.25;5117146;28;20027;-51
2023/12/10 06:24:29;;;;;;;0.30;0.30;;;;;;;8.10;100.00;100168.47;5116178;28;20069;-50
2023/12/10 06:26:54;;;;;;;0.20;0.20;;;;;;;8.06;100.00;100184.59;5116869;28;20054;-51
2023/12/10 06:29:19;;;;;;;0.20;0.20;;;;;;;8.00;100.00;100210.09;5116371;28;20024;-51
2023/12/10 06:31:45;;;;;;;0.30;0.30;;;;;;;8.01;100.00;100227.22;5116338;28;20045;-50
2023/12/10 06:34:10;;;;;;;0.20;0.20;;;;;;;8.05;100.00;100224.78;5116567;28;20106;-51
2023/12/10 06:36:36;;;;;;;0.38;0.38;;;;;;;8.08;100.00;100219.75;5115808;28;20056;-49
2023/12/10 06:39:02;;;;;;;0.28;0.28;;;;;;;8.12;100.00;100235.22;5116689;28;20023;-48
2023/12/10 06:41:27;;;;;;;0.30;0.30;;;;;;;8.07;100.00;100212.88;5116460;28;20020;-49
2023/12/10 06:43:53;;;;;;;0.28;0.28;;;;;;;8.10;100.00;100237.75;5115807;28;20023;-51
2023/12/10 06:46:18;;;;;;;0.30;0.30;;;;;;;8.08;100.00;100245.41;5115782;28;20023;-48
2023/12/10 06:48:44;;;;;;;0.30;0.30;;;;;;;8.11;100.00;100265.19;5116616;28;20024;-50
2023/12/10 06:51:10;;;;;;;0.20;0.20;;;;;;;8.18;100.00;100266.22;5115406;28;20023;-47
2023/12/10 06:53:35;;;;;;;0.20;0.20;;;;;;;8.17;100.00;100285.91;5116345;28;20026;-48
2023/12/10 06:56:00;;;;;;;0.25;0.25;;;;;;;8.15;100.00;100279.84;5116149;28;20031;-47
2023/12/10 06:58:26;;;;;;;0.30;0.30;;;;;;;8.16;100.00;100284.16;5115468;28;20038;-47
2023/12/10 07:00:51;;;;;;;0.30;0.30;;;;;;;8.14;100.00;100283.22;5116221;28;20032;-47
2023/12/10 07:03:17;;;;;;;0.30;0.30;;;;;;;8.13;100.00;100283.19;5115677;28;20034;-51
2023/12/10 07:05:42;;;;;;;0.30;0.30;;;;;;;8.17;100.00;100300.41;5115669;28;20024;-46
2023/12/10 07:08:07;;;;;;;0.20;0.20;;;;;;;8.15;100.00;100292.66;5115976;28;20028;-50
2023/12/10 07:10:33;;;;;;;0.30;0.30;;;;;;;8.15;100.00;100297.81;5115601;28;20019;-50
2023/12/10 07:12:58;;;;;;;0.30;0.30;;;;;;;8.17;100.00;100302.97;5115504;28;20091;-50
2023/12/10 07:15:24;;;;;;;0.28;0.28;;;;;;;8.15;100.00;100308.06;5115421;28;20028;-47
2023/12/10 07:17:49;;;;;;;0.30;0.30;;;;;;;8.13;100.00;100281.47;5115895;28;20019;-50
2023/12/10 07:20:14;;;;;;;0.30;0.30;;;;;;;8.10;100.00;100299.34;5115194;28;20020;-49
2023/12/10 07:22:41;;;;;;;0.30;0.30;;;;;;;8.07;100.00;100312.97;5115406;28;20019;-50
2023/12/10 07:25:07;;;;;;;0.30;0.30;;;;;;;8.12;100.00;100317.38;5115454;28;20060;-50
2023/12/10 07:27:32;;;;;;;0.30;0.30;;;;;;;8.12;100.00;100312.22;5114829;28;20367;-50
2023/12/10 07:29:58;;;;;;;0.30;0.30;;;;;;;8.11;100.00;100326.78;5115597;28;20026;-50
2023/12/10 07:32:24;;;;;;;0.20;0.20;;;;;;;8.13;100.00;100340.50;5115228;28;20027;-51
2023/12/10 07:34:49;;;;;;;0.30;0.30;;;;;;;8.12;100.00;100343.03;5115114;28;20027;-50
2023/12/10 07:37:15;;;;;;;0.35;0.35;;;;;;;8.11;100.00;100342.19;5115235;28;20024;-50
2023/12/10 07:39:40;;;;;;;0.30;0.30;;;;;;;8.15;100.00;100349.16;5115120;28;20028;-50
2023/12/10 07:42:05;;;;;;;0.30;0.30;;;;;;;8.14;100.00;100378.19;5114996;28;20037;-50
2023/12/10 07:44:31;;;;;;;0.25;0.25;;;;;;;8.15;100.00;100366.25;5114914;28;20035;-51
2023/12/10 07:46:56;;;;;;;0.30;0.30;;;;;;;8.16;100.00;100397.09;5114268;28;20122;-48
2023/12/10 07:49:22;;;;;;;0.28;0.28;;;;;;;8.14;100.00;100388.47;5114907;28;20062;-48
2023/12/10 07:51:47;;;;;;;0.30;0.30;;;;;;;8.11;100.00;100396.06;5097792;28;20102;-45
2023/12/10 07:54:13;;;;;;;0.35;0.35;;;;;;;8.09;100.00;100405.41;5093564;28;20028;-48
2023/12/10 07:56:38;;;;;;;0.20;0.20;;;;;;;8.08;100.00;100403.66;5094743;28;20028;-49
2023/12/10 07:59:03;;;;;;;0.30;0.30;;;;;;;8.08;100.00;100408.78;5094901;28;20333;-47
2023/12/10 08:01:29;;;;;;;0.32;0.32;;;;;;;8.07;100.00;100412.22;5093523;28;20475;-48
2023/12/10 08:03:54;;;;;;;0.20;0.20;;;;;;;8.10;100.00;100409.72;5094546;28;20080;-49
2023/12/10 08:06:20;;;;;;;0.30;0.30;;;;;;;8.08;100.00;100419.06;5094215;28;20072;-49
2023/12/10 08:08:45;;;;;;;0.30;0.30;;;;;;;8.04;100.00;100423.25;5094009;28;20397;-49
2023/12/10 08:11:11;;;;;;;0.20;0.20;;;;;;;8.05;100.00;100403.56;5094101;28;20031;-49
2023/12/10 08:13:37;;;;;;;0.30;0.30;;;;;;;8.04;100.00;100432.63;5094002;28;20352;-50
2023/12/10 08:16:02;;;;;;;0.40;0.40;;;;;;;8.01;100.00;100432.53;5093908;28;20117;-49
2023/12/10 08:18:27;;;;;;;0.30;0.30;;;;;;;7.99;100.00;100440.19;5094075;28;20154;-48
2023/12/10 08:20:54;;;;;;;0.30;0.30;;;;;;;8.02;100.00;100447.13;5094159;28;20024;-47
2023/12/10 08:23:19;;;;;;;0.30;0.30;;;;;;;8.01;100.00;100440.22;5093253;28;20368;-46
2023/12/10 08:25:45;;;;;;;0.30;0.30;;;;;;;7.98;100.00;100445.25;5093952;28;20020;-45
2023/12/10 08:28:10;;;;;;;0.30;0.30;;;;;;;7.98;100.00;100450.38;5093424;28;20028;-48
2023/12/10 08:30:36;;;;;;;0.30;0.30;;;;;;;7.97;100.00;100464.06;5093695;28;20081;-48
2023/12/10 08:33:01;;;;;;;0.30;0.30;;;;;;;7.97;100.00;100472.59;5094071;28;20028;-46
2023/12/10 08:35:26;;;;;;;0.30;0.30;;;;;;;7.95;100.00;100457.97;5092841;28;20020;-48
2023/12/10 08:37:52;;;;;;;0.30;0.30;;;;;;;7.95;100.00;100463.09;5093370;28;20031;-49
2023/12/10 08:40:17;;;;;;;0.30;0.30;;;;;;;7.94;100.00;100479.31;5093636;28;20099;-48
2023/12/10 08:42:42;;;;;;;0.20;0.20;;;;;;;7.93;100.00;100469.88;5093632;28;20097;-48
2023/12/10 08:45:08;;;;;;;0.30;0.30;;;;;;;7.94;100.00;100471.63;5093213;28;20043;-45
2023/12/10 08:47:35;;;;;;;0.30;0.30;;;;;;;7.93;100.00;100475.00;5093443;28;20556;-44
2023/12/10 08:50:00;;;;;;;0.30;0.30;;;;;;;7.93;100.00;100475.91;5093581;28;20020;-47
2023/12/10 08:52:25;;;;;;;0.30;0.30;;;;;;;7.96;100.00;100478.56;5092861;28;20034;-50
2023/12/10 08:54:51;;;;;;;0.20;0.20;;;;;;;7.97;100.00;100482.00;5093469;28;20139;-46
2023/12/10 08:57:16;;;;;;;0.28;0.28;;;;;;;7.97;100.00;100493.13;5092375;28;20031;-48
2023/12/10 08:59:42;;;;;;;0.30;0.30;;;;;;;8.01;100.00;100489.00;5093660;28;20032;-44
2023/12/10 09:02:07;;;;;;;0.20;0.20;;;;;;;8.03;100.00;100489.91;5093643;28;20020;-45
2023/12/10 09:04:33;;;;;;;0.30;0.30;;;;;;;8.05;100.00;100496.81;5092277;28;20067;-48
2023/12/10 09:06:58;;;;;;;0.20;0.20;;;;;;;8.06;100.00;100501.16;5093409;28;20022;-50
2023/12/10 09:09:23;;;;;;;0.20;0.20;;;;;;;8.05;100.00;100503.66;5092722;28;20036;-48
2023/12/10 09:11:49;;;;;;;0.30;0.30;;;;;;;8.03;100.00;100487.31;5092823;28;20028;-49
2023/12/10 09:14:14;;;;;;;0.30;0.30;;;;;;;7.97;100.00;100503.41;5092713;28;20054;-47
2023/12/10 09:16:40;;;;;;;0.30;0.30;;;;;;;7.98;100.00;100514.53;5093010;28;20490;-50
2023/12/10 09:19:05;;;;;;;0.30;0.30;;;;;;;7.94;100.00;100512.69;5092857;28;20051;-49
2023/12/10 09:21:31;;;;;;;0.30;0.30;;;;;;;7.93;100.00;100510.94;5092920;28;20480;-45
2023/12/10 09:23:56;;;;;;;0.30;0.30;;;;;;;7.89;100.00;100515.09;5092985;28;20020;-48
2023/12/10 09:26:22;;;;;;;0.30;0.30;;;;;;;7.85;100.00;100506.41;5092241;28;20492;-44
2023/12/10 09:28:47;;;;;;;0.30;0.30;;;;;;;7.83;100.00;100514.88;5092963;28;20035;-50
2023/12/10 09:31:12;;;;;;;0.30;0.30;;;;;;;7.81;100.00;100509.69;5092470;28;20024;-47
2023/12/10 09:33:38;;;;;;;0.30;0.30;;;;;;;7.79;100.00;100516.47;5092494;28;20020;-49
2023/12/10 09:36:03;;;;;;;0.30;0.30;;;;;;;7.77;100.00;100510.38;5093111;28;20490;-50
2023/12/10 09:38:29;;;;;;;0.40;0.40;;;;;;;7.74;100.00;100516.28;5092486;28;20548;-49
2023/12/10 09:40:54;;;;;;;0.30;0.30;;;;;;;7.74;100.00;100516.28;5092336;28;20530;-49
2023/12/10 09:43:19;;;;;;;0.30;0.30;;;;;;;7.75;100.00;100524.88;5092416;28;20028;-44
2023/12/10 09:45:45;;;;;;;0.22;0.22;;;;;;;7.83;100.00;100520.88;5092302;28;20039;-48
2023/12/10 09:48:11;;;;;;;0.30;0.30;;;;;;;7.86;100.00;100510.75;5091649;28;20036;-49
2023/12/10 09:50:41;;;;;;;0.30;0.30;;;;;;;7.93;100.00;100510.94;5092780;28;20028;-52
2023/12/10 09:53:07;;;;;;;0.30;0.30;;;;;;;7.99;100.00;100522.31;5092441;28;20020;-49
2023/12/10 09:55:32;;;;;;;0.30;0.30;;;;;;;8.09;100.00;100518.34;5091890;28;20028;-49
2023/12/10 09:57:58;;;;;;;0.30;0.30;;;;;;;8.18;100.00;100508.38;5092617;28;20107;-47
2023/12/10 10:00:25;;;;;;;0.30;0.30;;;;;;;8.19;100.00;100510.13;5092198;28;20066;-47
2023/12/10 10:02:50;;;;;;;0.20;0.20;;;;;;;8.28;100.00;100513.84;5092865;28;20024;-46
2023/12/10 10:05:16;;;;;;;0.30;0.30;;;;;;;8.29;100.00;100513.91;5092392;28;20375;-49
2023/12/10 10:07:41;;;;;;;0.30;0.30;;;;;;;8.33;100.00;100517.44;5091989;28;20020;-46
2023/12/10 10:10:10;;;;;;;0.30;0.30;;;;;;;8.34;100.00;100520.06;5092524;28;20028;-46
2023/12/10 10:12:36;;;;;;;0.30;0.30;;;;;;;8.40;100.00;100527.09;5092206;28;20085;-47
2023/12/10 10:15:01;;;;;;;0.20;0.20;;;;;;;8.47;100.00;100525.63;5091949;28;20036;-47
2023/12/10 10:17:30;;;;;;;0.23;0.23;;;;;;;8.45;100.00;100512.69;5092147;28;20372;-49
2023/12/10 10:19:56;;;;;;;0.22;0.22;;;;;;;8.46;100.00;100527.31;5092364;28;20028;-46
2023/12/10 10:22:26;;;;;;;0.30;0.30;;;;;;;8.57;100.00;100513.16;5091755;28;20024;-45
2023/12/10 10:24:52;;;;;;;0.30;0.30;;;;;;;8.69;100.00;100510.09;5092242;28;20468;-51
2023/12/10 10:27:18;;;;;;;0.20;0.20;;;;;;;8.75;100.00;100506.81;5091963;28;20023;-51
2023/12/10 10:29:44;;;;;;;0.30;0.30;;;;;;;8.80;100.00;100515.56;5091807;28;20028;-51
2023/12/10 10:32:18;;;;;;;0.30;0.30;;;;;;;8.86;100.00;100510.63;5092268;28;20023;-51
2023/12/10 10:34:45;;;;;;;0.22;0.22;;;;;;;8.92;100.00;100509.91;5092193;28;20103;-47
2023/12/10 10:37:10;;;;;;;0.25;0.25;;;;;;;8.95;100.00;100519.41;5091639;28;20073;-45
2023/12/10 10:39:37;;;;;;;0.30;0.30;;;;;;;9.01;100.00;100514.47;5092233;28;20032;-51
2023/12/10 10:42:06;;;;;;;0.30;0.30;;;;;;;9.07;100.00;100510.38;5092337;28;20031;-45
2023/12/10 10:44:32;;;;;;;0.30;0.30;;;;;;;9.17;100.00;100506.41;5091192;28;20576;-47
2023/12/10 10:46:58;;;;;;;0.20;0.20;;;;;;;9.29;100.00;100521.31;5092253;28;20122;-48
2023/12/10 10:49:25;;;;;;;0.30;0.30;;;;;;;9.41;100.00;100522.50;5091811;28;20150;-52
2023/12/10 10:51:51;;;;;;;0.30;0.30;;;;;;;9.64;100.00;100518.03;5091734;28;20368;-51
2023/12/10 10:54:17;;;;;;;0.10;0.10;;;;;;;9.77;100.00;100519.25;5091844;28;20032;-47
2023/12/10 10:56:44;;;;;;;0.20;0.20;;;;;;;9.91;100.00;100519.63;5091566;28;20361;-51
2023/12/10 10:59:32;;;;;;;0.22;0.22;;;;;;;9.98;100.00;100513.78;5095764;28;20034;-52
2023/12/10 11:01:58;;;;;;;;;;;;;;;10.20;100.00;100510.94;5096124;28;20020;-51
2023/12/10 11:04:24;;;;;;;0.30;0.30;;;;;;;10.15;100.00;100507.38;5094962;28;19943;-47
2023/12/10 11:06:50;;;;;;;0.20;0.20;;;;;;;9.98;100.00;100503.50;5095862;28;20180;-48
2023/12/10 11:09:16;;;;;;;0.20;0.20;;;;;;;9.75;100.00;100510.59;5095305;28;20060;-51
2023/12/10 11:11:42;;;;;;;0.30;0.30;;;;;;;9.56;100.00;100505.81;5095012;28;20020;-48
2023/12/10 11:14:21;;;;;;;0.20;0.20;;;;;;;9.60;100.00;100505.91;5095522;28;20030;-50
2023/12/10 11:16:57;;;;;;;0.30;0.30;;;;;;;9.66;100.00;100503.50;5095166;28;20055;-50
2023/12/10 11:19:23;;;;;;;0.22;0.22;;;;;;;9.77;100.00;100491.78;5094740;28;20032;-52
2023/12/10 11:21:49;;;;;;;0.30;0.30;;;;;;;9.71;100.00;100502.78;5095506;28;20020;-50
2023/12/10 11:24:15;;;;;;;0.30;0.30;;;;;;;9.79;100.00;100490.13;5095092;28;20047;-49